| time (UTC) | temp C | wind direction | speed KPH | gust KPH | rain 1hr cm | rain 24hr cm | rain mn cm | humidity % | barometer mb |
| 20260502181509 | 22 | 17 | 8.0 | 17.7 | 0.00 | 5.36 | 0.00 | 57 | 1020.8 |
| 20260502163051 | 20 | 51 | 9.7 | 19.3 | 0.00 | 8.36 | 0.00 | 68 | 1021.0 |
| 20260502161542 | 19 | 10 | 6.4 | 17.7 | 0.00 | 8.36 | 0.00 | 69 | 1021.0 |
| 20260502151520 | 17 | 301 | 6.4 | 22.5 | 0.00 | 8.48 | 0.00 | 76 | 1020.7 |
| 20260502123043 | 13 | 11 | 4.8 | 17.7 | 0.00 | 8.79 | 0.00 | 88 | 1019.0 |
| 20260502121539 | 12 | 360 | 6.4 | 17.7 | 0.00 | 8.79 | 0.00 | 88 | 1018.8 |
| 20260502114536 | 12 | 18 | 4.8 | 16.1 | 0.00 | 8.86 | 0.00 | 88 | 1018.4 |
| 20260502113035 | 13 | 22 | 3.2 | 12.9 | 0.00 | 8.86 | 0.00 | 88 | 1018.4 |
| 20260502111534 | 12 | 320 | 3.2 | 17.7 | 0.00 | 8.86 | 0.00 | 88 | 1018.3 |
| 20260502110036 | 12 | 11 | 6.4 | 14.5 | 0.00 | 8.86 | 0.00 | 87 | 1018.1 |
| 20260502104528 | 12 | 31 | 1.6 | 14.5 | 0.00 | 8.86 | 0.00 | 88 | 1017.8 |
| 20260502103032 | 13 | 323 | 1.6 | 8.0 | 0.00 | 8.86 | 0.00 | 87 | 1017.5 |
| 20260502101542 | 13 | 12 | 3.2 | 9.7 | 0.00 | 8.86 | 0.00 | 87 | 1017.2 |
| 20260502091518 | 13 | 334 | 1.6 | 12.9 | 0.00 | 8.86 | 0.00 | 88 | 1016.4 |
| 20260502071510 | 13 | 15 | 8.0 | 24.1 | 0.00 | 8.86 | 0.00 | 90 | 1016.3 |
| 20260502070011 | 13 | 9 | 6.4 | 20.9 | 0.00 | 8.86 | 0.00 | 90 | 1016.1 |
| 20260502064506 | 13 | 355 | 9.7 | 20.9 | 0.00 | 8.89 | 0.00 | 90 | 1016.0 |
| 20260502063005 | 13 | 28 | 6.4 | 24.1 | 0.00 | 8.89 | 0.00 | 90 | 1016.0 |
| 20260502061505 | 14 | 19 | 9.7 | 22.5 | 0.00 | 8.89 | 0.00 | 90 | 1015.9 |
| 20260502060005 | 13 | 90 | 6.4 | 19.3 | 0.00 | 8.89 | 0.00 | 90 | 1015.8 |
| 20260502054600 | 13 | 18 | 8.0 | 22.5 | 0.00 | 9.98 | 0.00 | 91 | 1015.9 |
| 20260502053059 | 13 | 343 | 4.8 | 17.7 | 0.00 | 9.98 | 0.00 | 92 | 1016.5 |
| 20260502051626 | 13 | 348 | 8.0 | 20.9 | 0.00 | 9.98 | 0.00 | 92 | 1016.1 |
| 20260502050056 | 13 | 355 | 8.0 | 25.7 | 0.00 | 9.98 | 0.00 | 92 | 1016.3 |
| 20260502044549 | 13 | 313 | 11.3 | 24.1 | 0.05 | 10.03 | 9.98 | 93 | 1016.3 |
| 20260502043051 | 13 | 5 | 6.4 | 22.5 | 0.05 | 10.03 | 9.98 | 93 | 1016.3 |
| 20260502041545 | 13 | 336 | 3.2 | 14.5 | 0.05 | 10.03 | 9.98 | 93 | 1016.2 |
| 20260502040053 | 13 | 55 | 4.8 | 17.7 | 0.08 | 10.03 | 9.98 | 93 | 1015.8 |
| 20260502034540 | 14 | 15 | 1.6 | 12.9 | 0.05 | 9.98 | 9.93 | 94 | 1015.6 |
| 20260502033041 | 13 | 11 | 9.7 | 24.1 | 0.10 | 9.98 | 9.93 | 93 | 1014.8 |
| 20260502031536 | 14 | 20 | 8.0 | 19.3 | 0.13 | 9.98 | 9.93 | 94 | 1014.5 |
| 20260502030033 | 14 | 19 | 11.3 | 27.4 | 0.13 | 9.96 | 9.91 | 94 | 1013.9 |
| 20260502024535 | 14 | 296 | 4.8 | 16.1 | 0.08 | 9.91 | 9.86 | 94 | 1014.4 |
| 20260502023027 | 15 | 355 | 4.8 | 14.5 | 0.13 | 9.88 | 9.83 | 94 | 1014.3 |
| 20260502021526 | 15 | 42 | 3.2 | 22.5 | 0.20 | 9.86 | 9.80 | 94 | 1014.3 |
| 20260502020024 | 15 | 40 | 4.8 | 16.1 | 0.18 | 9.83 | 9.78 | 94 | 1014.2 |
| 20260502014521 | 15 | 31 | 4.8 | 16.1 | 0.33 | 9.88 | 9.78 | 94 | 1013.9 |
| 20260502013020 | 15 | 350 | 3.2 | 17.7 | 0.43 | 9.78 | 9.68 | 94 | 1013.4 |
| 20260502011524 | 15 | 24 | 3.2 | 12.9 | 0.69 | 9.70 | 9.60 | 94 | 1013.1 |
| 20260502010018 | 15 | 5 | 4.8 | 17.7 | 0.79 | 9.70 | 9.60 | 94 | 1011.6 |
| 20260502004517 | 15 | 350 | 6.4 | 19.3 | 0.69 | 9.75 | 9.45 | 94 | 1011.8 |
| 20260502003016 | 15 | 59 | 3.2 | 19.3 | 0.48 | 9.53 | 9.22 | 94 | 1012.3 |
| 20260502001515 | 15 | 332 | 8.0 | 20.9 | 0.15 | 9.17 | 8.86 | 94 | 1011.4 |
| 20260502000013 | 15 | 5 | 8.0 | 22.5 | 0.10 | 9.09 | 8.79 | 94 | 1011.5 |
| 20260501234610 | 15 | 11 | 9.7 | 17.7 | 0.08 | 9.07 | 8.76 | 94 | 1011.6 |
| 20260501233017 | 16 | 14 | 9.7 | 25.7 | 0.05 | 9.04 | 8.74 | 94 | 1010.5 |
| 20260501231506 | 16 | 313 | 11.3 | 25.7 | 0.03 | 9.02 | 8.71 | 94 | 1010.6 |
| 20260501230006 | 16 | 24 | 4.8 | 20.9 | 0.03 | 8.99 | 8.69 | 94 | 1010.4 |
| 20260501224503 | 16 | 355 | 3.2 | 16.1 | 0.03 | 9.02 | 8.69 | 94 | 1011.3 |
| 20260501223003 | 16 | 5 | 6.4 | 24.1 | 0.13 | 9.02 | 8.69 | 94 | 1011.3 |
| 20260501221502 | 16 | 42 | 6.4 | 17.7 | 0.46 | 8.99 | 8.66 | 94 | 1011.5 |
| 20260501220138 | 16 | 36 | 6.4 | 19.3 | 0.58 | 8.99 | 8.66 | 94 | 1011.7 |
| 20260501214558 | 16 | 24 | 1.6 | 14.5 | 0.71 | 9.02 | 8.66 | 94 | 1011.4 |
| 20260501213103 | 16 | 346 | 3.2 | 14.5 | 0.84 | 8.92 | 8.56 | 94 | 1009.3 |
| 20260501211556 | 17 | 27 | 4.8 | 16.1 | 1.09 | 8.56 | 8.20 | 94 | 1011.1 |
| 20260501210106 | 17 | 325 | 6.4 | 16.1 | 1.42 | 8.41 | 8.05 | 94 | 1011.3 |
| 20260501204555 | 17 | 48 | 3.2 | 17.7 | 3.12 | 8.31 | 7.95 | 94 | 1010.4 |
| 20260501203052 | 17 | 32 | 4.8 | 14.5 | 2.97 | 8.08 | 7.72 | 94 | 1009.3 |
| 20260501201556 | 17 | 350 | 3.2 | 16.1 | 2.46 | 7.47 | 7.11 | 94 | 1010.0 |
| 20260501200050 | 17 | 328 | 3.2 | 9.7 | 1.98 | 6.99 | 6.63 | 94 | 1009.5 |
| 20260501194550 | 17 | 132 | 1.6 | 14.5 | 0.20 | 5.18 | 4.83 | 94 | 1011.2 |
| 20260501193049 | 17 | 296 | 4.8 | 16.1 | 0.13 | 5.08 | 4.75 | 94 | 1008.5 |
| 20260501191555 | 17 | 336 | 8.0 | 17.7 | 0.03 | 5.00 | 4.65 | 94 | 1010.4 |
| 20260501190052 | 17 | 347 | 1.6 | 16.1 | 0.03 | 5.00 | 4.65 | 94 | 1010.2 |
| 20260501184544 | 17 | 15 | 4.8 | 16.1 | 0.00 | 4.98 | 4.62 | 94 | 1011.1 |
| 20260501183057 | 17 | 11 | 9.7 | 22.5 | 0.00 | 4.98 | 4.62 | 94 | 1009.8 |